createdAt,value
2019-01-24T00:01:13.292Z,51.23
2019-01-24T00:03:42.885Z,53.63
2019-01-24T00:06:12.561Z,47.17
2019-01-24T00:08:42.130Z,52.07
2019-01-24T00:11:11.628Z,55.40
2019-01-24T00:13:41.150Z,51.00
2019-01-24T00:16:10.681Z,52.33
2019-01-24T00:18:40.260Z,49.33
2019-01-24T00:21:09.750Z,54.30
2019-01-24T00:23:39.280Z,52.10
2019-01-24T00:26:10.486Z,56.37
2019-01-24T00:28:40.024Z,48.53
2019-01-24T00:31:09.598Z,57.07
2019-01-24T00:33:39.326Z,50.80
2019-01-24T00:36:08.898Z,56.63
2019-01-24T00:38:38.466Z,55.35
2019-01-24T00:41:07.964Z,60.23
2019-01-24T00:43:37.530Z,53.43
2019-01-24T00:46:07.055Z,55.97
2019-01-24T00:48:36.576Z,55.15
2019-01-24T00:51:06.156Z,59.37
2019-01-24T00:53:35.687Z,55.93
2019-01-24T00:56:05.335Z,52.03
2019-01-24T00:58:34.844Z,55.20
2019-01-24T01:01:04.479Z,53.93
2019-01-24T01:03:34.041Z,56.10
2019-01-24T01:06:03.536Z,56.98
2019-01-24T01:08:33.066Z,52.90
2019-01-24T01:11:02.779Z,52.97
2019-01-24T01:13:32.268Z,59.03
2019-01-24T01:16:01.840Z,56.73
2019-01-24T01:18:31.391Z,62.47
2019-01-24T01:21:01.907Z,59.35
2019-01-24T01:23:31.465Z,56.93
2019-01-24T01:26:01.002Z,54.33
2019-01-24T01:28:30.498Z,54.67
2019-01-24T01:31:00.072Z,62.27
2019-01-24T01:33:30.560Z,58.58
2019-01-24T01:36:00.052Z,64.67
2019-01-24T01:38:29.622Z,63.57
2019-01-24T01:40:59.147Z,57.70
2019-01-24T01:43:28.776Z,59.53
2019-01-24T01:45:58.803Z,64.45
2019-01-24T01:48:28.302Z,63.83
2019-01-24T01:50:57.818Z,64.10
2019-01-24T01:53:27.333Z,64.75
2019-01-24T01:55:56.886Z,59.53
2019-01-24T01:58:27.065Z,60.88
2019-01-24T02:00:56.785Z,62.47
2019-01-24T02:03:26.283Z,71.17
2019-01-24T02:05:55.778Z,62.63
2019-01-24T02:08:25.466Z,64.77
2019-01-24T02:10:55.546Z,63.83
2019-01-24T02:13:25.121Z,68.80
2019-01-24T02:15:54.704Z,65.47
2019-01-24T02:18:24.203Z,69.03
2019-01-24T02:20:53.714Z,62.37
2019-01-24T02:23:43.558Z,62.33
2019-01-24T02:26:13.143Z,70.12
2019-01-24T02:28:42.711Z,63.77
2019-01-24T02:31:12.239Z,62.17
2019-01-24T02:33:41.748Z,63.77
2019-01-24T02:36:11.264Z,58.40
2019-01-24T02:38:40.756Z,55.83
2019-01-24T02:41:10.284Z,62.10
2019-01-24T02:43:40.192Z,59.65
2019-01-24T02:46:09.709Z,68.37
2019-01-24T02:48:39.267Z,59.90
2019-01-24T02:51:08.762Z,66.10
2019-01-24T02:53:38.254Z,57.00
2019-01-24T02:56:08.728Z,59.03
2019-01-24T02:58:38.281Z,54.83
2019-01-24T03:01:07.942Z,59.30
2019-01-24T03:03:37.444Z,58.27
2019-01-24T03:06:07.001Z,59.45
2019-01-24T03:08:37.090Z,67.27
2019-01-24T03:11:06.613Z,60.03
2019-01-24T03:13:36.133Z,57.63
2019-01-24T03:16:06.026Z,59.20
2019-01-24T03:18:35.519Z,59.65
2019-01-24T03:21:05.695Z,57.10
2019-01-24T03:23:35.278Z,65.70
2019-01-24T03:26:04.851Z,58.73
2019-01-24T03:28:34.357Z,64.30
2019-01-24T03:31:03.909Z,65.97
2019-01-24T03:33:34.018Z,64.50
2019-01-24T03:36:03.532Z,68.13
2019-01-24T03:38:33.078Z,65.67
2019-01-24T03:41:02.650Z,71.10
2019-01-24T03:43:32.146Z,68.97
2019-01-24T03:46:02.516Z,74.65
2019-01-24T03:48:32.011Z,67.50
2019-01-24T03:51:01.512Z,69.47
2019-01-24T03:53:31.073Z,67.97
2019-01-24T03:56:00.538Z,72.97
2019-01-24T03:58:30.798Z,76.00
2019-01-24T04:01:00.545Z,84.10
2019-01-24T04:03:30.116Z,78.00
2019-01-24T04:05:59.657Z,77.07
2019-01-24T04:08:29.190Z,69.87
2019-01-24T04:10:59.120Z,72.00
2019-01-24T04:13:28.718Z,70.30
2019-01-24T04:15:58.236Z,72.50
2019-01-24T04:18:27.743Z,76.33
2019-01-24T04:20:57.252Z,70.95
2019-01-24T04:23:27.393Z,71.33
2019-01-24T04:25:56.983Z,80.23
2019-01-24T04:28:26.487Z,77.93
2019-01-24T04:30:56.007Z,77.77
2019-01-24T04:33:25.535Z,78.23
2019-01-24T04:35:55.924Z,81.15
2019-01-24T04:38:25.466Z,81.23
2019-01-24T04:40:54.975Z,79.67
2019-01-24T04:43:24.481Z,79.40
2019-01-24T04:45:54.078Z,59.07
2019-01-24T04:48:24.205Z,64.17
2019-01-24T04:50:53.702Z,64.07
2019-01-24T04:53:23.218Z,56.57
2019-01-24T04:55:52.746Z,67.25
2019-01-24T04:58:22.283Z,55.53
2019-01-24T05:00:52.688Z,60.80
2019-01-24T05:03:22.207Z,62.47
2019-01-24T05:05:51.736Z,55.63
2019-01-24T05:08:21.271Z,60.65
2019-01-24T05:10:50.787Z,59.57
2019-01-24T05:13:21.144Z,57.40
2019-01-24T05:15:50.730Z,51.67
2019-01-24T05:18:20.227Z,52.73
2019-01-24T05:21:09.126Z,57.30
2019-01-24T05:23:38.636Z,53.37
2019-01-24T05:26:09.665Z,59.27
2019-01-24T05:28:58.505Z,58.37
2019-01-24T05:31:29.791Z,53.30
2019-01-24T05:33:59.299Z,62.23
2019-01-24T05:36:28.819Z,51.77
2019-01-24T05:38:58.302Z,55.43
2019-01-24T05:41:27.824Z,53.80
2019-01-24T05:43:58.089Z,55.00
2019-01-24T05:46:27.630Z,55.30
2019-01-24T05:48:57.126Z,50.50
2019-01-24T05:51:26.628Z,53.33
2019-01-24T05:53:56.155Z,58.07
2019-01-24T05:56:26.446Z,48.00
2019-01-24T05:58:55.931Z,58.97
2019-01-24T06:01:25.850Z,47.50
2019-01-24T06:03:55.452Z,55.03
2019-01-24T06:06:24.956Z,50.07
2019-01-24T06:08:54.746Z,55.28
2019-01-24T06:11:24.292Z,51.30
2019-01-24T06:13:53.817Z,45.80
2019-01-24T06:16:23.392Z,49.83
2019-01-24T06:18:52.915Z,51.77
2019-01-24T06:21:23.100Z,50.35
2019-01-24T06:23:52.603Z,50.40
2019-01-24T06:26:22.115Z,46.43
2019-01-24T06:28:51.615Z,49.67
2019-01-24T06:31:21.134Z,47.40
2019-01-24T06:33:51.375Z,49.30
2019-01-24T06:36:20.893Z,47.47
2019-01-24T06:38:50.395Z,46.73
2019-01-24T06:41:19.928Z,46.03
2019-01-24T06:43:49.435Z,47.53
2019-01-24T06:46:19.680Z,48.30
2019-01-24T06:48:49.199Z,54.60
2019-01-24T06:51:18.750Z,54.63
2019-01-24T06:53:48.260Z,50.77
2019-01-24T06:56:17.771Z,52.03
2019-01-24T06:58:48.101Z,48.78
2019-01-24T07:01:17.617Z,51.60
2019-01-24T07:03:47.224Z,51.00
2019-01-24T07:06:16.723Z,45.63
2019-01-24T07:08:46.251Z,51.00
2019-01-24T07:11:16.434Z,49.00
2019-01-24T07:13:45.957Z,46.73
2019-01-24T07:16:15.466Z,47.23
2019-01-24T07:18:44.999Z,53.10
2019-01-24T07:21:14.503Z,52.90
2019-01-24T07:23:45.045Z,49.23
2019-01-24T07:26:14.560Z,49.30
2019-01-24T07:28:44.085Z,50.70
2019-01-24T07:31:13.704Z,48.47
2019-01-24T07:33:43.191Z,49.42
2019-01-24T07:36:13.517Z,51.68
2019-01-24T07:38:43.034Z,47.40
2019-01-24T07:41:12.536Z,51.87
2019-01-24T07:43:42.042Z,50.70
2019-01-24T07:46:11.859Z,49.42
2019-01-24T07:48:41.940Z,48.17
2019-01-24T07:51:11.451Z,52.55
2019-01-24T07:53:40.969Z,50.27
2019-01-24T07:56:10.474Z,51.37
2019-01-24T07:58:40.043Z,50.10
2019-01-24T08:01:10.118Z,45.83
2019-01-24T08:03:39.632Z,48.60
2019-01-24T08:06:09.432Z,51.77
2019-01-24T08:08:38.914Z,51.10
2019-01-24T08:11:08.409Z,56.65
2019-01-24T08:13:38.483Z,52.95
2019-01-24T08:16:08.007Z,51.83
2019-01-24T08:18:37.519Z,50.57
2019-01-24T08:21:07.016Z,45.70
2019-01-24T08:23:36.550Z,48.73
2019-01-24T08:26:07.045Z,55.17
2019-01-24T08:28:36.566Z,51.77
2019-01-24T08:31:06.312Z,55.63
2019-01-24T08:33:35.837Z,61.60
2019-01-24T08:36:05.520Z,50.30
2019-01-24T08:38:35.451Z,51.58
2019-01-24T08:41:05.033Z,50.13
2019-01-24T08:43:34.548Z,50.07
2019-01-24T08:46:04.120Z,52.60
2019-01-24T08:48:33.647Z,53.13
2019-01-24T08:51:03.809Z,47.08
2019-01-24T08:53:52.671Z,47.93
2019-01-24T08:56:22.174Z,62.27
2019-01-24T08:58:51.714Z,45.17
2019-01-24T09:01:21.290Z,46.47
2019-01-24T09:03:50.817Z,50.07
2019-01-24T09:06:22.653Z,47.63
2019-01-24T09:08:51.573Z,48.17
2019-01-24T09:11:21.085Z,48.27
2019-01-24T09:13:50.603Z,45.30
2019-01-24T09:16:20.089Z,47.70
2019-01-24T09:18:49.598Z,53.57
2019-01-24T09:21:38.422Z,45.83
2019-01-24T09:24:07.938Z,48.73
2019-01-24T09:26:37.447Z,44.70
2019-01-24T09:29:07.029Z,51.45
2019-01-24T09:31:37.037Z,44.63
2019-01-24T09:34:06.551Z,46.33
2019-01-24T09:36:36.113Z,43.17
2019-01-24T09:39:08.473Z,47.27
2019-01-24T09:41:37.960Z,51.23
2019-01-24T09:44:07.485Z,52.00
2019-01-24T09:46:36.992Z,49.33
2019-01-24T09:49:06.735Z,51.47
2019-01-24T09:51:36.224Z,59.93
2019-01-24T09:54:05.822Z,66.23
2019-01-24T09:56:36.629Z,45.33
2019-01-24T09:59:06.145Z,40.00
2019-01-24T10:01:35.633Z,45.20
2019-01-24T10:04:05.139Z,43.87
2019-01-24T10:06:36.381Z,44.23
2019-01-24T10:09:08.322Z,45.23
2019-01-24T10:11:37.899Z,41.87
2019-01-24T10:14:07.573Z,40.27
2019-01-24T10:16:37.115Z,42.03
2019-01-24T10:19:06.698Z,38.42
2019-01-24T10:21:36.202Z,47.00
2019-01-24T10:24:05.952Z,41.73
2019-01-24T10:26:35.503Z,41.63
2019-01-24T10:29:05.046Z,34.03
2019-01-24T10:31:34.599Z,36.77
2019-01-24T10:34:04.683Z,35.10
2019-01-24T10:36:35.403Z,33.47
2019-01-24T10:39:08.099Z,34.90
2019-01-24T10:41:37.686Z,31.67
2019-01-24T10:44:07.168Z,33.17
2019-01-24T10:46:36.672Z,35.87
2019-01-24T10:49:06.205Z,33.00
2019-01-24T10:51:35.783Z,27.50
2019-01-24T10:54:05.304Z,31.07
2019-01-24T10:56:35.330Z,31.30
2019-01-24T10:59:04.924Z,31.67
2019-01-24T11:01:34.436Z,32.43
2019-01-24T11:04:04.077Z,31.07
2019-01-24T11:06:33.632Z,27.90
2019-01-24T11:09:04.623Z,24.47
2019-01-24T11:11:34.128Z,29.83
2019-01-24T11:14:03.729Z,28.65
2019-01-24T11:16:33.665Z,32.55
2019-01-24T11:19:03.227Z,19.30
2019-01-24T11:21:34.280Z,18.63
2019-01-24T11:24:03.936Z,17.43
2019-01-24T11:26:33.441Z,21.70
2019-01-24T11:29:02.930Z,23.77
2019-01-24T11:31:32.504Z,19.00
2019-01-24T11:34:02.075Z,15.90
2019-01-24T11:36:31.578Z,17.83
2019-01-24T11:39:01.107Z,16.75
2019-01-24T11:41:30.620Z,17.50
2019-01-24T11:44:00.101Z,16.70
2019-01-24T11:46:29.620Z,18.97
2019-01-24T11:48:59.124Z,17.27
2019-01-24T11:51:28.751Z,19.20
2019-01-24T11:53:58.255Z,17.30
2019-01-24T11:56:27.796Z,17.13
2019-01-24T11:58:57.277Z,19.63
2019-01-24T12:01:26.820Z,20.17
2019-01-24T12:03:56.326Z,18.80
2019-01-24T12:06:25.814Z,20.70
2019-01-24T12:08:55.339Z,20.77
2019-01-24T12:11:24.865Z,21.83
2019-01-24T12:13:54.377Z,20.83
2019-01-24T12:16:23.897Z,32.63
2019-01-24T12:18:54.555Z,22.30
2019-01-24T12:21:24.096Z,24.90
2019-01-24T12:23:53.624Z,18.77
2019-01-24T12:26:23.137Z,20.73
2019-01-24T12:28:52.631Z,20.77
2019-01-24T12:31:22.262Z,21.03
2019-01-24T12:33:51.755Z,17.93
2019-01-24T12:36:21.382Z,19.73
2019-01-24T12:38:50.879Z,20.17
2019-01-24T12:41:20.504Z,19.03
2019-01-24T12:43:50.531Z,19.30
2019-01-24T12:46:20.092Z,19.87
2019-01-24T12:48:49.697Z,18.93
2019-01-24T12:51:19.228Z,18.73
2019-01-24T12:53:48.841Z,17.60
2019-01-24T12:56:18.952Z,19.57
2019-01-24T12:58:48.524Z,18.97
2019-01-24T13:01:18.014Z,19.73
2019-01-24T13:03:47.544Z,20.00
2019-01-24T13:06:17.069Z,20.53
2019-01-24T13:08:47.241Z,18.37
2019-01-24T13:11:16.727Z,20.87
2019-01-24T13:13:46.292Z,22.00
2019-01-24T13:16:15.830Z,22.33
2019-01-24T13:18:45.371Z,23.57
2019-01-24T13:21:15.668Z,19.65
2019-01-24T13:23:45.221Z,22.63
2019-01-24T13:26:14.739Z,20.23
2019-01-24T13:28:44.267Z,22.30
2019-01-24T13:31:13.782Z,21.87
2019-01-24T13:33:43.871Z,21.62
2019-01-24T13:36:13.404Z,27.37
2019-01-24T13:38:42.911Z,22.33
2019-01-24T13:41:12.451Z,24.63
2019-01-24T13:43:41.959Z,21.80
2019-01-24T13:46:12.134Z,22.58
2019-01-24T13:48:41.635Z,23.97
2019-01-24T13:51:11.172Z,24.40
2019-01-24T13:53:40.658Z,24.27
2019-01-24T13:56:10.193Z,23.83
2019-01-24T13:58:40.304Z,20.85
2019-01-24T14:01:09.905Z,23.27
2019-01-24T14:03:42.140Z,22.40
2019-01-24T14:06:12.025Z,23.10
2019-01-24T14:08:41.518Z,22.75
2019-01-24T14:11:17.863Z,23.73
2019-01-24T14:13:42.283Z,22.85
2019-01-24T14:16:11.815Z,23.03
2019-01-24T14:18:41.354Z,24.07
2019-01-24T14:21:10.910Z,24.43
2019-01-24T14:23:40.540Z,23.70
2019-01-24T14:26:10.144Z,22.83
2019-01-24T14:28:39.644Z,22.87
2019-01-24T14:31:09.325Z,21.40
2019-01-24T14:33:38.876Z,23.10
2019-01-24T14:36:09.303Z,21.63
2019-01-24T14:38:39.010Z,22.87
2019-01-24T14:41:08.486Z,28.43
2019-01-24T14:43:38.023Z,26.70
2019-01-24T14:46:07.824Z,24.10
2019-01-24T14:48:37.353Z,27.02
2019-01-24T14:51:07.341Z,23.92
2019-01-24T14:53:36.874Z,24.60
2019-01-24T14:56:06.647Z,21.90
2019-01-24T14:58:36.148Z,25.93
2019-01-24T15:01:07.689Z,25.30
2019-01-24T15:03:37.195Z,31.10
2019-01-24T15:06:06.801Z,25.97
2019-01-24T15:08:36.349Z,26.70
2019-01-24T15:11:06.022Z,25.43
2019-01-24T15:13:35.545Z,23.30
2019-01-24T15:16:05.326Z,26.33
2019-01-24T15:18:34.926Z,23.70
2019-01-24T15:21:04.706Z,23.60
2019-01-24T15:23:34.249Z,23.00
2019-01-24T15:26:03.904Z,23.07
2019-01-24T15:28:33.391Z,22.27
2019-01-24T15:31:02.930Z,24.57
2019-01-24T15:33:32.512Z,22.97
2019-01-24T15:36:02.089Z,26.50
2019-01-24T15:38:31.574Z,22.50
2019-01-24T15:41:13.711Z,26.80
2019-01-24T15:43:43.214Z,24.93
2019-01-24T15:46:12.750Z,25.57
2019-01-24T15:48:43.087Z,28.25
2019-01-24T15:51:12.758Z,27.93
2019-01-24T15:53:42.369Z,32.13
2019-01-24T15:56:11.873Z,27.67
2019-01-24T15:58:41.489Z,30.20
2019-01-24T16:01:11.102Z,31.87
2019-01-24T16:03:40.608Z,43.23
2019-01-24T16:06:10.182Z,29.37
2019-01-24T16:08:39.751Z,37.17
2019-01-24T16:11:09.234Z,50.83
2019-01-24T16:13:40.033Z,30.60
2019-01-24T16:16:09.560Z,31.07
2019-01-24T16:18:39.093Z,28.67
2019-01-24T16:21:08.617Z,35.47
2019-01-24T16:23:38.192Z,34.87
2019-01-24T16:26:10.401Z,33.60
2019-01-24T16:28:39.898Z,37.33
2019-01-24T16:31:09.440Z,38.97
2019-01-24T16:33:38.953Z,36.98
2019-01-24T16:36:08.639Z,41.33
2019-01-24T16:38:38.161Z,39.80
2019-01-24T16:41:08.066Z,45.90
2019-01-24T16:43:37.612Z,41.43
2019-01-24T16:46:07.241Z,39.70
2019-01-24T16:48:36.751Z,39.80
2019-01-24T16:51:06.376Z,41.13
2019-01-24T16:53:35.887Z,44.23
2019-01-24T16:56:06.086Z,41.87
2019-01-24T16:58:35.647Z,46.03
2019-01-24T17:01:05.752Z,49.23
2019-01-24T17:03:35.295Z,46.63
2019-01-24T17:06:05.000Z,47.83
2019-01-24T17:08:34.577Z,48.20
2019-01-24T17:11:04.151Z,50.63
2019-01-24T17:13:33.696Z,53.27
2019-01-24T17:16:03.418Z,54.70
2019-01-24T17:18:34.145Z,53.67
2019-01-24T17:21:03.842Z,54.53
2019-01-24T17:23:33.513Z,58.83
2019-01-24T17:26:03.144Z,55.50
2019-01-24T17:28:32.723Z,69.23
2019-01-24T17:31:02.914Z,62.23
2019-01-24T17:33:32.450Z,66.83
2019-01-24T17:36:02.081Z,75.00
2019-01-24T17:38:31.744Z,79.27
2019-01-24T17:41:01.291Z,77.85
2019-01-24T17:43:31.457Z,72.00
2019-01-24T17:46:01.041Z,123.33
2019-01-24T17:48:30.552Z,98.87
2019-01-24T17:51:00.086Z,83.73
2019-01-24T17:53:29.588Z,90.80
2019-01-24T17:55:59.926Z,92.22
2019-01-24T17:58:29.601Z,90.90
2019-01-24T18:01:18.438Z,84.43
2019-01-24T18:03:48.126Z,79.27
2019-01-24T18:06:17.781Z,82.33
2019-01-24T18:08:47.314Z,87.30
2019-01-24T18:11:16.874Z,86.60
2019-01-24T18:13:46.383Z,91.97
2019-01-24T18:16:15.929Z,86.30
2019-01-24T18:18:45.492Z,82.23
2019-01-24T18:21:15.038Z,81.80
2019-01-24T18:23:44.547Z,80.28
2019-01-24T18:26:14.369Z,82.17
2019-01-24T18:28:43.861Z,82.47
2019-01-24T18:31:13.364Z,83.00
2019-01-24T18:33:42.909Z,86.70
2019-01-24T18:36:31.792Z,83.97
2019-01-24T18:39:20.684Z,87.07
2019-01-24T18:42:09.682Z,83.90
2019-01-24T18:44:39.172Z,78.17
2019-01-24T18:47:08.734Z,83.50
2019-01-24T18:49:38.242Z,79.87
2019-01-24T18:52:07.886Z,80.93
2019-01-24T18:54:37.447Z,79.87
2019-01-24T18:57:07.349Z,81.80
2019-01-24T18:59:36.887Z,74.73
2019-01-24T19:02:06.609Z,73.37
2019-01-24T19:04:36.138Z,77.40
2019-01-24T19:07:05.755Z,77.97
2019-01-24T19:09:35.351Z,71.13
2019-01-24T19:12:04.937Z,71.93
2019-01-24T19:14:34.519Z,64.97
2019-01-24T19:17:04.124Z,49.53
2019-01-24T19:19:33.674Z,45.90
2019-01-24T19:22:03.221Z,56.63
2019-01-24T19:24:34.114Z,61.47
2019-01-24T19:27:23.076Z,53.52
2019-01-24T19:33:14.426Z,45.03
2019-01-24T19:35:44.097Z,46.80
2019-01-24T19:38:13.764Z,54.90
2019-01-24T19:40:43.303Z,49.00
2019-01-24T19:43:12.829Z,48.37
2019-01-24T19:45:44.053Z,49.50
2019-01-24T19:48:14.483Z,50.78
2019-01-24T19:50:44.050Z,50.23
2019-01-24T19:53:13.714Z,54.83
2019-01-24T19:55:43.590Z,47.70
2019-01-24T19:58:13.078Z,54.60
2019-01-24T20:00:42.699Z,53.03
2019-01-24T20:03:12.327Z,55.40
2019-01-24T20:05:41.828Z,58.83
2019-01-24T20:08:11.472Z,58.70
2019-01-24T20:10:41.035Z,58.95
2019-01-24T20:13:11.028Z,60.30
2019-01-24T20:15:40.540Z,57.97
2019-01-24T20:18:10.167Z,58.43
2019-01-24T20:20:39.702Z,64.30
2019-01-24T20:23:09.502Z,54.98
2019-01-24T20:25:39.238Z,57.58
2019-01-24T20:28:08.841Z,60.30
2019-01-24T20:30:38.411Z,54.10
2019-01-24T20:33:07.984Z,55.53
2019-01-24T20:35:41.670Z,57.33
2019-01-24T20:38:12.543Z,61.53
2019-01-24T20:40:42.124Z,53.47
2019-01-24T20:43:13.811Z,59.53
2019-01-24T20:45:43.394Z,58.57
2019-01-24T20:48:13.178Z,63.67
2019-01-24T20:50:42.823Z,59.48
2019-01-24T20:53:12.813Z,57.50
2019-01-24T20:55:42.320Z,59.07
2019-01-24T20:58:11.829Z,67.50
2019-01-24T21:00:41.477Z,64.87
2019-01-24T21:03:11.023Z,59.73
2019-01-24T21:05:40.600Z,57.00
2019-01-24T21:08:10.106Z,60.73
2019-01-24T21:10:39.730Z,62.60
2019-01-24T21:13:09.235Z,64.90
2019-01-24T21:15:38.791Z,63.83
2019-01-24T21:18:08.283Z,58.90
2019-01-24T21:20:37.899Z,63.93
2019-01-24T21:23:07.652Z,68.10
2019-01-24T21:25:37.260Z,55.50
2019-01-24T21:28:07.091Z,66.53
2019-01-24T21:30:38.134Z,68.40
2019-01-24T21:33:08.537Z,63.57
2019-01-24T21:35:38.147Z,70.60
2019-01-24T21:38:08.299Z,65.10
2019-01-24T21:40:37.874Z,70.87
2019-01-24T21:43:07.489Z,74.23
2019-01-24T21:45:38.525Z,68.73
2019-01-24T21:48:08.972Z,71.27
2019-01-24T21:50:38.570Z,72.10
2019-01-24T21:53:08.360Z,70.53
2019-01-24T21:55:37.995Z,73.77
2019-01-24T21:58:08.206Z,74.10
2019-01-24T22:00:37.847Z,73.37
2019-01-24T22:03:07.535Z,73.30
2019-01-24T22:05:37.186Z,72.67
2019-01-24T22:08:07.017Z,68.73
2019-01-24T22:10:36.519Z,69.57
2019-01-24T22:13:07.484Z,72.87
2019-01-24T22:15:37.054Z,69.57
2019-01-24T22:18:06.989Z,73.67
2019-01-24T22:20:36.552Z,76.07
2019-01-24T22:23:06.548Z,70.50
2019-01-24T22:25:36.304Z,73.90
2019-01-24T22:28:25.158Z,77.82
2019-01-24T22:30:56.472Z,70.30
2019-01-24T22:33:25.999Z,73.23
2019-01-24T22:35:55.507Z,64.53
2019-01-24T22:38:25.036Z,64.63
2019-01-24T22:40:54.541Z,66.10
2019-01-24T22:43:24.086Z,61.98
2019-01-24T22:45:53.639Z,54.60
2019-01-24T22:48:23.167Z,58.47
2019-01-24T22:50:52.706Z,57.53
2019-01-24T22:53:22.172Z,53.20
2019-01-24T22:55:51.677Z,54.20
2019-01-24T22:58:22.447Z,54.90
2019-01-24T23:01:02.940Z,53.83
2019-01-24T23:06:53.905Z,57.70
2019-01-24T23:09:23.564Z,55.17
2019-01-24T23:11:53.110Z,55.20
2019-01-24T23:14:22.824Z,56.13
2019-01-24T23:16:52.322Z,53.03
2019-01-24T23:19:21.828Z,50.17
2019-01-24T23:21:51.347Z,52.43
2019-01-24T23:24:20.880Z,54.63
2019-01-24T23:26:50.362Z,51.03
2019-01-24T23:29:19.992Z,53.60
2019-01-24T23:31:49.491Z,46.87
2019-01-24T23:34:19.018Z,50.10
2019-01-24T23:36:48.523Z,49.53
2019-01-24T23:39:18.069Z,46.13
2019-01-24T23:41:47.603Z,48.00
2019-01-24T23:44:17.125Z,52.27
2019-01-24T23:46:46.628Z,49.60
2019-01-24T23:49:17.298Z,49.73
2019-01-24T23:51:46.795Z,50.23
2019-01-24T23:54:16.314Z,49.07
2019-01-24T23:56:45.903Z,54.00
2019-01-24T23:59:15.460Z,51.87
